createdAt,value
2023-01-08T00:00:00.000Z,73.21
2023-01-08T00:15:00.000Z,73.91
2023-01-08T00:30:00.000Z,74.56
2023-01-08T00:45:00.000Z,75.09
2023-01-08T01:00:00.000Z,76.66
2023-01-08T01:15:00.000Z,78.68
2023-01-08T01:30:00.000Z,79.5
2023-01-08T01:45:00.000Z,79.49
2023-01-08T02:00:00.000Z,79.43
2023-01-08T02:15:00.000Z,79.03
2023-01-08T02:30:00.000Z,79.85
2023-01-08T02:45:00.000Z,80.01
2023-01-08T03:00:00.000Z,81.32
2023-01-08T03:15:00.000Z,82.01
2023-01-08T03:30:00.000Z,82.52
2023-01-08T03:45:00.000Z,82.56
2023-01-08T04:00:00.000Z,82.98
2023-01-08T04:15:00.000Z,83.4
2023-01-08T04:30:00.000Z,83
2023-01-08T04:45:00.000Z,82.49
2023-01-08T05:00:00.000Z,81.47
2023-01-08T05:15:00.000Z,82.08
2023-01-08T05:30:00.000Z,84.27
2023-01-08T05:45:00.000Z,84.02
2023-01-08T06:00:00.000Z,83.52
2023-01-08T06:15:00.000Z,83.23
2023-01-08T06:30:00.000Z,84.06
2023-01-08T06:45:00.000Z,84.27
2023-01-08T07:00:00.000Z,81.74
2023-01-08T07:15:00.000Z,81.09
2023-01-08T07:30:00.000Z,81.32
2023-01-08T07:45:00.000Z,80.79
2023-01-08T08:00:00.000Z,76.73
2023-01-08T08:15:00.000Z,75.42
2023-01-08T08:30:00.000Z,74.09
2023-01-08T08:45:00.000Z,73.46
2023-01-08T09:00:00.000Z,72.78
2023-01-08T09:15:00.000Z,72.34
2023-01-08T09:30:00.000Z,72.27
2023-01-08T09:45:00.000Z,72.93
2023-01-08T10:00:00.000Z,72.22
2023-01-08T10:15:00.000Z,69.75
2023-01-08T10:30:00.000Z,66.78
2023-01-08T10:45:00.000Z,64.32
2023-01-08T11:00:00.000Z,62.86
2023-01-08T11:15:00.000Z,61.17
2023-01-08T11:30:00.000Z,64.64
2023-01-08T11:45:00.000Z,64.54
2023-01-08T12:00:00.000Z,62.61
2023-01-08T12:15:00.000Z,61.91
2023-01-08T12:30:00.000Z,58.3
2023-01-08T12:45:00.000Z,57.68
2023-01-08T13:00:00.000Z,57.09
2023-01-08T13:15:00.000Z,55.47
2023-01-08T13:30:00.000Z,54.78
2023-01-08T13:45:00.000Z,56.34
2023-01-08T14:00:00.000Z,57.02
2023-01-08T14:15:00.000Z,58.43
2023-01-08T14:30:00.000Z,60.72
2023-01-08T14:45:00.000Z,61.96
2023-01-08T15:00:00.000Z,63.94
2023-01-08T15:15:00.000Z,66.61
2023-01-08T15:30:00.000Z,67.6
2023-01-08T15:45:00.000Z,71.93
2023-01-08T16:00:00.000Z,74.48
2023-01-08T16:15:00.000Z,76.29
2023-01-08T16:30:00.000Z,76.95
2023-01-08T16:45:00.000Z,76.27
2023-01-08T17:00:00.000Z,73.8
2023-01-08T17:15:00.000Z,71.22
2023-01-08T17:30:00.000Z,70.08
2023-01-08T17:45:00.000Z,68.9
2023-01-08T18:00:00.000Z,69.89
2023-01-08T18:15:00.000Z,70.61
2023-01-08T18:30:00.000Z,70.96
2023-01-08T18:45:00.000Z,69.49
2023-01-08T19:00:00.000Z,69.24
2023-01-08T19:15:00.000Z,74
2023-01-08T19:30:00.000Z,73.21
2023-01-08T19:45:00.000Z,69.57
2023-01-08T20:00:00.000Z,69.79
2023-01-08T20:15:00.000Z,69.91
2023-01-08T20:30:00.000Z,73.84
2023-01-08T20:45:00.000Z,77.42
2023-01-08T21:00:00.000Z,73.71
2023-01-08T21:15:00.000Z,74.18
2023-01-08T21:30:00.000Z,73.27
2023-01-08T21:45:00.000Z,75.6
2023-01-08T22:00:00.000Z,74.05
2023-01-08T22:15:00.000Z,73.27
2023-01-08T22:30:00.000Z,74.2
2023-01-08T22:45:00.000Z,74.27
2023-01-08T23:00:00.000Z,74.56
2023-01-08T23:15:00.000Z,74.55
2023-01-08T23:30:00.000Z,74.73
2023-01-08T23:45:00.000Z,76.73
